Time;durP1;ratioP1;P1;durP2;ratioP2;P2;SDS_P1;SDS_P2;PMS_P1;PMS_P2;Temp;Humidity;BMP_temperature;BMP_pressure;BME280_temperature;BME280_humidity;BME280_pressure;Samples;Min_cycle;Max_cycle;Signal;HPM_P1;HPM_P2
2022/08/16 00:01:53;;;;;;;4.63;2.60;;;;;;;;;;5055866;28;20025;-60
2022/08/16 00:04:28;;;;;;;4.28;2.63;;;;;;;;;;5055750;28;20109;-60
2022/08/16 00:07:04;;;;;;;4.40;2.58;;;;;;;;;;5056160;28;20124;-60
2022/08/16 00:09:49;;;;;;;3.42;1.92;;;;;;;;;;5055186;28;20029;-60
2022/08/16 00:15:29;;;;;;;5.50;2.13;;;;;;;;;;5056150;28;20087;-60
2022/08/16 00:18:14;;;;;;;3.00;2.50;;;;;;;;;;5055776;28;20021;-60
2022/08/16 00:23:39;;;;;;;3.63;1.95;;;;;;;;;;5057826;28;20097;-60
2022/08/16 00:26:14;;;;;;;3.50;2.22;;;;;;;;;;5055095;28;20025;-60
2022/08/16 00:29:00;;;;;;;3.60;2.70;;;;;;;;;;5055541;28;20413;-60
2022/08/16 00:31:46;;;;;;;2.50;1.95;;;;;;;;;;5055388;28;20063;-60
2022/08/16 00:34:22;;;;;;;4.07;2.67;;;;;;;;;;5055832;28;20116;-60
2022/08/16 00:37:08;;;;;;;2.60;2.05;;;;;;;;;;5056107;28;20025;-60
2022/08/16 00:39:45;;;;;;;3.88;2.75;;;;;;;;;;5070802;28;20491;-60
2022/08/16 00:42:45;;;;;;;2.78;1.98;;;;;;;;;;5055067;28;20032;-60
2022/08/16 00:45:23;;;;;;;3.22;2.22;;;;;;;;;;5055209;28;20025;-60
2022/08/16 00:48:33;;;;;;;4.13;2.97;;;;;;;;;;5055710;28;20028;-60
2022/08/16 00:51:01;;;;;;;2.65;2.15;;;;;;;;;;5053574;28;20033;-60
2022/08/16 00:53:46;;;;;;;4.65;2.10;;;;;;;;;;5070372;28;20459;-60
2022/08/16 00:56:15;;;;;;;3.42;2.42;;;;;;;;;;5054372;28;20029;-60
2022/08/16 00:58:53;;;;;;;4.03;2.92;;;;;;;;;;5054479;28;20399;-59
2022/08/16 01:01:39;;;;;;;3.08;2.55;;;;;;;;;;5055367;28;20544;-60
2022/08/16 01:04:19;;;;;;;;;;;;;;;;;;;;;
2022/08/16 01:09:45;;;;;;;3.75;2.40;;;;;;;;;;5053734;28;20041;-60
2022/08/16 01:12:24;;;;;;;3.05;2.45;;;;;;;;;;5054388;28;20533;-60
2022/08/16 01:14:54;;;;;;;3.87;3.37;;;;;;;;;;5053392;28;20049;-60
2022/08/16 01:17:25;;;;;;;2.97;2.63;;;;;;;;;;5054559;28;20282;-60
2022/08/16 01:20:05;;;;;;;5.60;3.30;;;;;;;;;;5054463;28;20037;-60
2022/08/16 01:22:52;;;;;;;4.28;2.80;;;;;;;;;;5054744;28;20036;-60
2022/08/16 01:25:27;;;;;;;3.40;2.65;;;;;;;;;;5054160;28;20033;-60
2022/08/16 01:28:10;;;;;;;3.63;3.25;;;;;;;;;;5051955;28;20433;-60
2022/08/16 01:34:05;;;;;;;3.80;2.85;;;;;;;;;;5049023;28;20509;-60
2022/08/16 01:36:53;;;;;;;4.03;2.65;;;;;;;;;;5054345;28;20112;-60
2022/08/16 01:39:34;;;;;;;3.13;2.55;;;;;;;;;;5053526;28;20029;-60
2022/08/16 01:42:10;;;;;;;5.80;2.97;;;;;;;;;;5053708;28;20021;-60
2022/08/16 01:44:52;;;;;;;4.28;3.33;;;;;;;;;;5052713;28;20378;-60
2022/08/16 01:50:41;;;;;;;4.22;2.90;;;;;;;;;;5053278;28;20049;-60
2022/08/16 01:53:32;;;;;;;6.45;3.03;;;;;;;;;;5052769;28;20033;-60
2022/08/16 01:56:01;;;;;;;4.55;2.17;;;;;;;;;;5052554;28;20074;-60
2022/08/16 01:58:31;;;;;;;4.10;2.67;;;;;;;;;;5054224;28;20114;-60
2022/08/16 02:01:19;;;;;;;3.42;2.58;;;;;;;;;;5052931;28;20025;-60
2022/08/16 02:03:58;;;;;;;3.65;2.40;;;;;;;;;;5053955;28;20405;-60
2022/08/16 02:06:34;;;;;;;7.85;3.08;;;;;;;;;;5052852;28;20025;-60
2022/08/16 02:09:08;;;;;;;4.63;3.17;;;;;;;;;;5067315;28;20127;-60
2022/08/16 02:11:40;;;;;;;6.13;2.88;;;;;;;;;;5052890;28;20031;-60
2022/08/16 02:14:25;;;;;;;6.72;3.70;;;;;;;;;;5053601;28;20029;-60
2022/08/16 02:17:11;;;;;;;4.53;2.95;;;;;;;;;;5052012;28;20029;-60
2022/08/16 02:19:39;;;;;;;4.00;3.00;;;;;;;;;;5052801;28;20039;-60
2022/08/16 02:22:16;;;;;;;;;;;;;;;;;;;;;
2022/08/16 02:24:49;;;;;;;4.30;3.33;;;;;;;;;;5053247;28;20029;-60
2022/08/16 02:27:34;;;;;;;4.75;3.28;;;;;;;;;;5068701;28;20064;-60
2022/08/16 02:30:16;;;;;;;6.07;3.50;;;;;;;;;;5053656;28;20038;-60
2022/08/16 02:35:42;;;;;;;4.65;3.40;;;;;;;;;;5062053;28;20483;-60
2022/08/16 02:38:31;;;;;;;4.07;3.05;;;;;;;;;;5053737;28;20028;-59
2022/08/16 02:40:58;;;;;;;3.92;2.88;;;;;;;;;;5067797;28;20045;-60
2022/08/16 02:43:34;;;;;;;5.25;3.35;;;;;;;;;;5053880;28;20087;-60
2022/08/16 02:46:10;;;;;;;3.92;3.20;;;;;;;;;;5053637;28;20420;-60
2022/08/16 02:48:45;;;;;;;4.07;3.10;;;;;;;;;;5053788;28;20025;-60
2022/08/16 02:51:32;;;;;;;6.30;3.60;;;;;;;;;;5052696;28;20087;-60
2022/08/16 02:54:01;;;;;;;4.63;3.35;;;;;;;;;;5061570;28;20033;-60
2022/08/16 02:56:38;;;;;;;5.55;3.58;;;;;;;;;;5067938;28;20025;-60
2022/08/16 02:59:18;;;;;;;4.22;3.10;;;;;;;;;;5049378;28;20041;-60
2022/08/16 03:01:47;;;;;;;4.22;3.30;;;;;;;;;;5052760;28;20025;-60
2022/08/16 03:04:38;;;;;;;6.15;4.20;;;;;;;;;;5053373;28;20021;-60
2022/08/16 03:07:33;;;;;;;;;;;;;;;;;;;;;
2022/08/16 03:10:00;;;;;;;5.30;3.38;;;;;;;;;;5051479;28;20049;-60
2022/08/16 03:18:28;;;;;;;3.08;2.60;;;;;;;;;;5052948;28;20390;-60
2022/08/16 03:21:31;;;;;;;4.05;3.17;;;;;;;;;;5051430;28;20032;-60
2022/08/16 03:24:06;;;;;;;4.40;3.38;;;;;;;;;;5052002;28;20029;-60
2022/08/16 03:26:35;;;;;;;4.15;3.55;;;;;;;;;;5052564;28;20028;-60
2022/08/16 03:29:10;;;;;;;3.80;2.90;;;;;;;;;;5050691;28;20024;-60
2022/08/16 03:32:00;;;;;;;3.97;3.00;;;;;;;;;;5047117;28;20037;-60
2022/08/16 03:35:02;;;;;;;6.13;4.00;;;;;;;;;;5051867;28;20017;-60
2022/08/16 03:37:31;;;;;;;2.90;2.40;;;;;;;;;;5050862;28;20033;-60
2022/08/16 03:40:04;;;;;;;4.18;3.00;;;;;;;;;;5050706;28;20509;-60
2022/08/16 03:42:36;;;;;;;4.55;3.35;;;;;;;;;;5051317;28;20060;-60
2022/08/16 03:45:25;;;;;;;3.38;2.70;;;;;;;;;;5051674;28;20041;-60
2022/08/16 03:48:23;;;;;;;3.28;2.60;;;;;;;;;;5051256;28;20029;-60
2022/08/16 03:50:52;;;;;;;6.53;4.47;;;;;;;;;;5048234;28;20037;-60
2022/08/16 03:53:32;;;;;;;4.45;3.35;;;;;;;;;;5048556;28;20072;-60
2022/08/16 03:56:07;;;;;;;3.95;3.22;;;;;;;;;;5049856;28;20064;-60
2022/08/16 03:58:46;;;;;;;4.18;3.15;;;;;;;;;;5051710;28;20035;-60
2022/08/16 04:01:25;;;;;;;4.45;3.78;;;;;;;;;;5049435;28;20017;-60
2022/08/16 04:04:07;;;;;;;3.90;3.15;;;;;;;;;;5051171;28;20064;-60
2022/08/16 04:07:15;;;;;;;8.25;3.80;;;;;;;;;;5049077;28;20033;-59
2022/08/16 04:12:29;;;;;;;3.58;3.15;;;;;;;;;;5035457;28;20581;-60
2022/08/16 04:18:16;;;;;;;4.75;3.60;;;;;;;;;;5031048;28;20053;-60
2022/08/16 04:21:09;;;;;;;4.95;3.92;;;;;;;;;;5033871;28;20135;-60
2022/08/16 04:23:47;;;;;;;4.25;3.65;;;;;;;;;;5037915;28;20041;-60
2022/08/16 04:26:32;;;;;;;4.18;3.40;;;;;;;;;;5047759;28;20029;-60
2022/08/16 04:29:09;;;;;;;5.13;3.28;;;;;;;;;;5049103;28;20113;-60
2022/08/16 04:31:43;;;;;;;5.22;3.40;;;;;;;;;;5051497;28;20056;-60
2022/08/16 04:37:22;;;;;;;5.70;3.85;;;;;;;;;;5054291;28;20486;-60
2022/08/16 04:39:54;;;;;;;4.07;3.40;;;;;;;;;;5050126;28;20132;-60
2022/08/16 04:42:34;;;;;;;3.67;3.25;;;;;;;;;;5053412;28;20079;-60
2022/08/16 04:45:23;;;;;;;7.00;4.43;;;;;;;;;;5052985;28;20242;-60
2022/08/16 04:48:03;;;;;;;6.28;4.25;;;;;;;;;;5053969;28;20393;-60
2022/08/16 04:50:41;;;;;;;4.32;3.88;;;;;;;;;;5050818;28;20033;-60
2022/08/16 04:53:20;;;;;;;4.82;3.58;;;;;;;;;;5053110;28;20049;-60
2022/08/16 04:55:55;;;;;;;6.93;3.90;;;;;;;;;;5053648;28;20023;-60
2022/08/16 04:58:36;;;;;;;6.10;3.20;;;;;;;;;;5052304;28;20442;-60
2022/08/16 05:01:43;;;;;;;;;;;;;;;;;;;;;
2022/08/16 05:04:22;;;;;;;6.85;4.10;;;;;;;;;;5053077;28;20028;-60
2022/08/16 05:07:08;;;;;;;5.82;4.18;;;;;;;;;;5046932;28;20478;-60
2022/08/16 05:09:48;;;;;;;5.32;3.80;;;;;;;;;;5050449;28;20052;-60
2022/08/16 05:12:24;;;;;;;5.07;3.63;;;;;;;;;;5049587;28;20065;-59
2022/08/16 05:15:02;;;;;;;4.80;3.85;;;;;;;;;;5032638;28;20047;-60
2022/08/16 05:17:37;;;;;;;5.70;4.32;;;;;;;;;;5048939;28;20399;-60
2022/08/16 05:20:10;;;;;;;8.02;4.30;;;;;;;;;;5045903;28;20033;-60
2022/08/16 05:22:56;;;;;;;8.27;3.40;;;;;;;;;;5056193;28;20099;-60
2022/08/16 05:25:40;;;;;;;4.50;3.30;;;;;;;;;;5056173;28;20037;-60
2022/08/16 05:28:12;;;;;;;4.22;3.60;;;;;;;;;;5053100;28;20497;-60
2022/08/16 05:30:44;;;;;;;6.68;3.92;;;;;;;;;;5052136;28;20033;-60
2022/08/16 05:33:26;;;;;;;5.97;4.30;;;;;;;;;;5054046;28;20127;-60
2022/08/16 05:36:12;;;;;;;6.65;4.25;;;;;;;;;;5051490;28;20045;-60
2022/08/16 05:41:43;;;;;;;9.32;4.05;;;;;;;;;;5051834;28;20027;-60
2022/08/16 05:44:22;;;;;;;3.63;3.22;;;;;;;;;;5052155;28;20028;-60
2022/08/16 05:47:17;;;;;;;7.85;4.13;;;;;;;;;;5052353;28;20029;-60
2022/08/16 05:49:49;;;;;;;4.53;3.63;;;;;;;;;;5034176;28;20124;-60
2022/08/16 05:52:24;;;;;;;5.35;3.92;;;;;;;;;;5065488;28;20032;-60
2022/08/16 05:54:53;;;;;;;8.88;4.53;;;;;;;;;;5052807;28;20036;-60
2022/08/16 05:57:24;;;;;;;6.13;4.30;;;;;;;;;;5052912;28;20122;-60
2022/08/16 05:59:59;;;;;;;4.57;3.78;;;;;;;;;;5052740;28;20032;-60
2022/08/16 06:02:37;;;;;;;4.78;3.60;;;;;;;;;;5051430;28;20560;-60
2022/08/16 06:08:11;;;;;;;4.38;3.55;;;;;;;;;;5051432;28;20050;-60
2022/08/16 06:10:48;;;;;;;6.18;4.40;;;;;;;;;;5051979;28;20025;-60
2022/08/16 06:13:39;;;;;;;;;;;;;;;;;;;;;
2022/08/16 06:21:54;;;;;;;5.85;3.80;;;;;;;;;;5050339;28;20072;-60
2022/08/16 06:24:35;;;;;;;6.78;4.03;;;;;;;;;;5048675;28;20190;-60
2022/08/16 06:27:13;;;;;;;6.95;3.65;;;;;;;;;;5056225;28;20028;-60
2022/08/16 06:29:48;;;;;;;6.28;4.22;;;;;;;;;;5065591;28;20066;-60
2022/08/16 06:32:25;;;;;;;7.70;4.25;;;;;;;;;;5070984;28;20037;-60
2022/08/16 06:35:06;;;;;;;5.78;4.10;;;;;;;;;;5051776;28;20027;-60
2022/08/16 06:37:56;;;;;;;;;;;;;;;;;;;;;
2022/08/16 06:40:31;;;;;;;4.55;3.67;;;;;;;;;;5046642;28;20029;-60
2022/08/16 06:43:00;;;;;;;4.38;3.13;;;;;;;;;;5057827;28;20031;-60
2022/08/16 06:45:42;;;;;;;4.18;3.65;;;;;;;;;;5048891;28;20355;-60
2022/08/16 06:48:20;;;;;;;4.10;3.20;;;;;;;;;;5048923;28;20533;-60
2022/08/16 06:50:52;;;;;;;5.18;4.30;;;;;;;;;;5067254;28;20043;-60
2022/08/16 06:53:42;;;;;;;3.50;3.13;;;;;;;;;;5064217;28;20025;-60
2022/08/16 06:56:58;;;;;;;;;;;;;;;;;;;;;
2022/08/16 06:59:28;;;;;;;9.80;4.53;;;;;;;;;;5050387;28;20063;-60
2022/08/16 07:02:08;;;;;;;4.33;3.37;;;;;;;;;;5048408;28;20502;-60
2022/08/16 07:04:58;;;;;;;6.10;3.58;;;;;;;;;;5053305;28;20310;-60
2022/08/16 07:07:37;;;;;;;5.65;3.95;;;;;;;;;;5050098;28;20040;-60
2022/08/16 07:10:12;;;;;;;4.72;4.00;;;;;;;;;;5049834;28;20346;-60
2022/08/16 07:12:49;;;;;;;4.00;3.35;;;;;;;;;;5048833;28;20112;-60
2022/08/16 07:15:24;;;;;;;4.60;3.72;;;;;;;;;;5051485;28;20029;-60
2022/08/16 07:18:20;;;;;;;5.07;3.92;;;;;;;;;;5048642;28;20458;-60
2022/08/16 07:20:52;;;;;;;4.43;3.45;;;;;;;;;;5048987;28;20033;-60
2022/08/16 07:26:24;;;;;;;4.32;3.85;;;;;;;;;;5051299;28;20112;-60
2022/08/16 07:29:04;;;;;;;5.63;3.42;;;;;;;;;;5051359;28;20032;-60
2022/08/16 07:31:55;;;;;;;8.75;3.90;;;;;;;;;;5051092;28;20143;-60
2022/08/16 07:34:20;;;;;;;5.50;4.05;;;;;;;;;;5049823;28;20029;-60
2022/08/16 07:42:31;;;;;;;4.63;3.38;;;;;;;;;;5049261;28;20453;-60
2022/08/16 07:45:01;;;;;;;5.72;3.47;;;;;;;;;;5050921;28;20025;-60
2022/08/16 07:47:30;;;;;;;3.97;3.60;;;;;;;;;;5049633;28;20033;-60
2022/08/16 07:50:12;;;;;;;4.65;3.65;;;;;;;;;;5065765;28;20036;-60
2022/08/16 07:53:05;;;;;;;5.18;3.00;;;;;;;;;;5050423;28;20040;-60
2022/08/16 07:55:54;;;;;;;5.15;2.90;;;;;;;;;;5050715;28;20036;-60
2022/08/16 07:58:43;;;;;;;4.00;3.60;;;;;;;;;;5051269;28;20041;-60
2022/08/16 08:01:22;;;;;;;5.85;4.35;;;;;;;;;;5050313;28;20123;-61
2022/08/16 08:03:51;;;;;;;6.10;3.47;;;;;;;;;;5048389;28;20025;-59
2022/08/16 08:06:28;;;;;;;;;;;;;;;;;;;;;
2022/08/16 08:09:00;;;;;;;3.80;3.50;;;;;;;;;;5034270;28;20031;-59
2022/08/16 08:11:30;;;;;;;5.00;3.97;;;;;;;;;;5044951;28;20083;-59
2022/08/16 08:14:08;;;;;;;6.32;4.22;;;;;;;;;;5053832;28;20031;-59
2022/08/16 08:16:39;;;;;;;4.38;3.90;;;;;;;;;;5053237;28;20083;-59
2022/08/16 08:19:20;;;;;;;6.30;4.10;;;;;;;;;;5069481;28;20121;-59
2022/08/16 08:21:53;;;;;;;4.28;3.28;;;;;;;;;;5069935;28;20029;-59
2022/08/16 08:24:47;;;;;;;5.10;3.78;;;;;;;;;;5052770;28;20296;-59
2022/08/16 08:27:15;;;;;;;4.97;4.30;;;;;;;;;;5054599;28;20501;-62
2022/08/16 08:30:02;;;;;;;4.80;4.30;;;;;;;;;;5053928;28;20035;-59
2022/08/16 08:32:56;;;;;;;;;;;;;;;;;;;;;
2022/08/16 08:35:26;;;;;;;5.55;4.45;;;;;;;;;;5054916;28;20035;-59
2022/08/16 08:37:54;;;;;;;7.50;3.72;;;;;;;;;;5034058;28;20057;-60
2022/08/16 08:40:27;;;;;;;4.43;3.83;;;;;;;;;;5033660;28;20029;-59
2022/08/16 08:43:03;;;;;;;4.72;3.85;;;;;;;;;;5051685;28;20564;-59
2022/08/16 08:45:30;;;;;;;4.93;3.75;;;;;;;;;;5053701;28;20060;-59
2022/08/16 08:48:05;;;;;;;4.50;4.10;;;;;;;;;;5054691;28;20036;-59
2022/08/16 08:50:32;;;;;;;4.68;4.18;;;;;;;;;;5053790;28;20506;-59
2022/08/16 08:53:03;;;;;;;4.38;3.97;;;;;;;;;;5052690;28;20080;-59
2022/08/16 08:55:33;;;;;;;4.32;3.78;;;;;;;;;;5052019;28;20036;-59
2022/08/16 08:58:02;;;;;;;5.65;3.50;;;;;;;;;;5052678;28;20017;-59
2022/08/16 09:00:40;;;;;;;4.63;4.13;;;;;;;;;;5053110;28;20060;-59
2022/08/16 09:03:09;;;;;;;5.95;3.97;;;;;;;;;;5068830;28;20471;-59
2022/08/16 09:05:38;;;;;;;5.07;4.18;;;;;;;;;;5054925;28;20124;-59
2022/08/16 09:08:30;;;;;;;4.40;3.70;;;;;;;;;;5052793;28;20552;-59
2022/08/16 09:11:02;;;;;;;6.53;4.30;;;;;;;;;;5051670;28;20040;-59
2022/08/16 09:13:34;;;;;;;4.38;3.85;;;;;;;;;;5050572;28;20336;-59
2022/08/16 09:16:06;;;;;;;5.10;3.97;;;;;;;;;;5071513;28;20074;-59
2022/08/16 09:18:38;;;;;;;7.43;4.45;;;;;;;;;;5053886;28;20063;-59
2022/08/16 09:21:15;;;;;;;;;;;;;;;;;;;;;
2022/08/16 09:24:01;;;;;;;3.95;3.55;;;;;;;;;;5053612;28;20497;-59
2022/08/16 09:26:41;;;;;;;6.05;3.78;;;;;;;;;;5053551;28;20033;-59
2022/08/16 09:29:19;;;;;;;6.47;4.15;;;;;;;;;;5050304;28;20583;-59
2022/08/16 09:32:07;;;;;;;4.53;3.90;;;;;;;;;;5051717;28;20041;-59
2022/08/16 09:34:49;;;;;;;4.10;3.70;;;;;;;;;;5069121;28;20044;-59
2022/08/16 09:37:18;;;;;;;6.28;3.83;;;;;;;;;;5052056;28;20075;-59
2022/08/16 09:39:57;;;;;;;5.32;4.60;;;;;;;;;;5067589;28;20036;-59
2022/08/16 09:42:30;;;;;;;5.60;4.55;;;;;;;;;;5053088;28;20029;-59
2022/08/16 09:44:57;;;;;;;8.40;4.63;;;;;;;;;;5053131;28;20032;-60
2022/08/16 09:47:29;;;;;;;6.50;5.22;;;;;;;;;;5052120;28;20475;-59
2022/08/16 09:50:01;;;;;;;4.28;3.88;;;;;;;;;;5032361;28;20547;-59
2022/08/16 09:52:28;;;;;;;6.03;4.45;;;;;;;;;;5050912;28;20464;-59
2022/08/16 09:55:10;;;;;;;6.93;5.15;;;;;;;;;;5051254;28;20039;-59
2022/08/16 10:00:35;;;;;;;5.55;4.18;;;;;;;;;;5051363;28;20474;-59
2022/08/16 10:03:15;;;;;;;4.72;4.20;;;;;;;;;;5052875;28;20037;-59
2022/08/16 10:05:59;;;;;;;10.77;4.22;;;;;;;;;;5051773;28;20123;-59
2022/08/16 10:08:35;;;;;;;4.30;3.65;;;;;;;;;;5055067;28;20020;-59
2022/08/16 10:14:01;;;;;;;7.50;4.30;;;;;;;;;;5037497;28;20032;-59
2022/08/16 10:16:33;;;;;;;8.25;4.13;;;;;;;;;;5052825;28;20036;-59
2022/08/16 10:19:02;;;;;;;4.72;3.88;;;;;;;;;;5051049;28;20033;-59
2022/08/16 10:24:39;;;;;;;7.90;4.03;;;;;;;;;;5052634;28;20512;-59
2022/08/16 10:27:11;;;;;;;3.85;3.45;;;;;;;;;;5052381;28;20099;-59
2022/08/16 10:32:30;;;;;;;4.85;4.25;;;;;;;;;;5050296;28;20032;-59
2022/08/16 10:35:06;;;;;;;5.30;3.42;;;;;;;;;;5052089;28;20024;-59
2022/08/16 10:37:35;;;;;;;8.10;4.93;;;;;;;;;;5050656;28;20021;-59
2022/08/16 10:40:01;;;;;;;4.47;3.80;;;;;;;;;;5066575;28;20487;-59
2022/08/16 10:42:27;;;;;;;4.43;3.72;;;;;;;;;;5067441;28;20583;-59
2022/08/16 10:45:03;;;;;;;6.78;3.83;;;;;;;;;;5051277;28;20431;-59
2022/08/16 10:47:37;;;;;;;4.15;3.67;;;;;;;;;;5047705;28;20079;-59
2022/08/16 10:50:05;;;;;;;4.97;3.65;;;;;;;;;;5051099;28;20025;-59
2022/08/16 10:52:34;;;;;;;4.82;4.07;;;;;;;;;;5050238;28;20467;-59
2022/08/16 10:55:08;;;;;;;5.40;4.10;;;;;;;;;;5051516;28;20025;-59
2022/08/16 10:57:38;;;;;;;4.30;3.85;;;;;;;;;;5051329;28;20057;-59
2022/08/16 11:00:13;;;;;;;5.18;3.88;;;;;;;;;;5051143;28;20827;-59
2022/08/16 11:02:39;;;;;;;4.13;3.63;;;;;;;;;;5032210;28;20361;-59
2022/08/16 11:05:14;;;;;;;5.25;4.45;;;;;;;;;;5050614;28;20044;-59
2022/08/16 11:07:43;;;;;;;3.90;3.22;;;;;;;;;;5050061;28;20029;-59
2022/08/16 11:10:11;;;;;;;8.32;3.88;;;;;;;;;;5048465;28;20044;-60
2022/08/16 11:12:43;;;;;;;5.25;3.45;;;;;;;;;;5042102;28;20065;-59
2022/08/16 11:15:16;;;;;;;6.47;3.38;;;;;;;;;;5050480;28;20423;-59
2022/08/16 11:18:00;;;;;;;5.63;3.35;;;;;;;;;;5066635;28;20484;-58
2022/08/16 11:20:28;;;;;;;6.72;4.15;;;;;;;;;;5050446;28;20045;-59
2022/08/16 11:22:57;;;;;;;4.25;2.97;;;;;;;;;;5051823;28;20048;-59
2022/08/16 11:25:28;;;;;;;6.10;4.07;;;;;;;;;;5049106;28;20082;-59
2022/08/16 11:27:59;;;;;;;5.03;3.15;;;;;;;;;;5051566;28;20025;-59
2022/08/16 11:30:35;;;;;;;6.85;3.03;;;;;;;;;;5050261;28;20056;-59
2022/08/16 11:33:04;;;;;;;4.97;4.10;;;;;;;;;;5051863;28;20029;-59
2022/08/16 11:35:38;;;;;;;4.90;3.35;;;;;;;;;;5050214;28;20032;-59
2022/08/16 11:38:16;;;;;;;6.30;3.53;;;;;;;;;;5051603;28;20024;-59
2022/08/16 11:40:56;;;;;;;3.40;3.10;;;;;;;;;;5051082;28;20028;-59
2022/08/16 11:43:23;;;;;;;7.40;2.72;;;;;;;;;;5054691;28;20086;-59
2022/08/16 11:45:55;;;;;;;3.33;3.00;;;;;;;;;;5054063;28;20040;-59
2022/08/16 11:48:32;;;;;;;6.85;2.88;;;;;;;;;;5054391;28;20032;-59
2022/08/16 11:51:04;;;;;;;5.30;3.40;;;;;;;;;;5054162;28;20060;-59
2022/08/16 11:53:33;;;;;;;4.20;3.22;;;;;;;;;;5055615;28;20021;-59
2022/08/16 11:56:05;;;;;;;3.75;3.30;;;;;;;;;;5052842;28;20033;-59
2022/08/16 11:58:38;;;;;;;8.80;3.42;;;;;;;;;;5053911;28;20108;-59
2022/08/16 12:01:09;;;;;;;7.28;3.88;;;;;;;;;;5053973;28;20033;-59
2022/08/16 12:03:38;;;;;;;5.78;3.28;;;;;;;;;;5055144;28;20299;-59
2022/08/16 12:06:12;;;;;;;3.10;2.58;;;;;;;;;;5053867;28;20068;-59
2022/08/16 12:08:56;;;;;;;3.42;2.20;;;;;;;;;;5053241;28;20057;-59
2022/08/16 12:11:23;;;;;;;3.22;2.75;;;;;;;;;;5054734;28;20025;-59
2022/08/16 12:13:59;;;;;;;;;;;;;;;;;;;;;
2022/08/16 12:16:26;;;;;;;4.13;3.22;;;;;;;;;;5053474;28;20472;-59
2022/08/16 12:18:55;;;;;;;4.07;2.22;;;;;;;;;;5069236;28;20072;-59
2022/08/16 12:21:27;;;;;;;4.55;3.05;;;;;;;;;;5053326;28;20528;-60
2022/08/16 12:23:56;;;;;;;3.17;2.88;;;;;;;;;;5055418;28;20087;-59
2022/08/16 12:26:26;;;;;;;4.35;2.92;;;;;;;;;;5052738;28;20017;-59
2022/08/16 12:28:52;;;;;;;3.75;3.17;;;;;;;;;;5054580;28;20265;-59
2022/08/16 12:31:19;;;;;;;6.53;3.58;;;;;;;;;;5053117;28;20033;-59
2022/08/16 12:33:46;;;;;;;5.50;3.25;;;;;;;;;;5053153;28;20029;-59
2022/08/16 12:36:16;;;;;;;4.00;2.85;;;;;;;;;;5034800;28;20052;-59
2022/08/16 12:38:42;;;;;;;;;;;;;;;;;;5054736;28;20036;-59
2022/08/16 12:41:08;;;;;;;4.05;2.75;;;;;;;;;;5053837;28;19908;-59
2022/08/16 12:43:40;;;;;;;5.00;3.25;;;;;;;;;;5054521;28;20028;-59
2022/08/16 12:46:11;;;;;;;6.80;3.42;;;;;;;;;;5065620;28;20398;-59
2022/08/16 12:48:58;;;;;;;4.20;3.03;;;;;;;;;;5051962;28;20028;-59
2022/08/16 12:51:33;;;;;;;5.65;2.83;;;;;;;;;;5053828;28;20033;-59
2022/08/16 12:54:00;;;;;;;4.43;3.28;;;;;;;;;;5053602;28;20094;-59
2022/08/16 12:56:30;;;;;;;3.25;2.72;;;;;;;;;;5052131;28;20552;-59
2022/08/16 12:58:57;;;;;;;3.65;3.03;;;;;;;;;;5039734;28;20029;-59
2022/08/16 13:01:28;;;;;;;3.58;3.25;;;;;;;;;;5052655;28;20044;-59
2022/08/16 13:03:55;;;;;;;3.40;2.67;;;;;;;;;;5053084;28;20040;-59
2022/08/16 13:06:21;;;;;;;4.70;3.25;;;;;;;;;;5053502;28;20021;-59
2022/08/16 13:08:48;;;;;;;3.63;3.00;;;;;;;;;;5069025;28;20059;-59
2022/08/16 13:11:27;;;;;;;3.60;2.53;;;;;;;;;;5036244;28;20487;-59
2022/08/16 13:13:57;;;;;;;4.35;3.28;;;;;;;;;;5051578;28;20056;-59
2022/08/16 13:16:26;;;;;;;5.07;2.42;;;;;;;;;;5053397;28;20382;-59
2022/08/16 13:18:52;;;;;;;4.20;3.00;;;;;;;;;;5052975;28;20467;-59
2022/08/16 13:21:18;;;;;;;7.95;3.13;;;;;;;;;;5054059;28;20083;-59
2022/08/16 13:23:44;;;;;;;3.85;3.00;;;;;;;;;;5053102;28;20470;-59
2022/08/16 13:26:11;;;;;;;3.03;2.38;;;;;;;;;;5051700;28;20025;-59
2022/08/16 13:28:40;;;;;;;3.55;2.65;;;;;;;;;;5052265;28;20033;-59
2022/08/16 13:31:09;;;;;;;3.87;2.83;;;;;;;;;;5051523;28;20127;-59
2022/08/16 13:33:38;;;;;;;3.85;3.15;;;;;;;;;;5053517;28;20078;-59
2022/08/16 13:36:14;;;;;;;3.97;2.90;;;;;;;;;;5067468;28;20028;-59
2022/08/16 13:38:44;;;;;;;5.28;2.80;;;;;;;;;;5052409;28;20029;-60
2022/08/16 13:41:11;;;;;;;3.53;2.70;;;;;;;;;;5067937;28;20021;-59
2022/08/16 13:43:40;;;;;;;3.67;3.05;;;;;;;;;;5052431;28;20024;-59
2022/08/16 13:46:07;;;;;;;4.50;2.50;;;;;;;;;;5052325;28;20032;-59
2022/08/16 13:48:36;;;;;;;4.50;2.60;;;;;;;;;;5051515;28;20033;-59
2022/08/16 13:51:03;;;;;;;3.22;2.70;;;;;;;;;;5052589;28;20491;-59
2022/08/16 13:53:29;;;;;;;3.25;2.15;;;;;;;;;;5052789;28;20025;-59
2022/08/16 13:56:00;;;;;;;5.38;2.95;;;;;;;;;;5050512;28;20045;-59
2022/08/16 13:58:27;;;;;;;5.15;2.85;;;;;;;;;;5052033;28;20103;-59
2022/08/16 14:00:56;;;;;;;3.58;2.70;;;;;;;;;;5050502;28;20031;-59
2022/08/16 14:03:26;;;;;;;3.33;2.47;;;;;;;;;;5052571;28;20021;-59
2022/08/16 14:05:55;;;;;;;4.27;3.13;;;;;;;;;;5034655;28;20025;-59
2022/08/16 14:08:21;;;;;;;5.93;3.08;;;;;;;;;;5051231;28;20024;-60
2022/08/16 14:10:47;;;;;;;4.80;2.90;;;;;;;;;;5050859;28;20033;-59
2022/08/16 14:13:16;;;;;;;3.63;2.90;;;;;;;;;;5051895;28;20467;-59
2022/08/16 14:15:42;;;;;;;4.95;2.70;;;;;;;;;;5051506;28;20382;-59
2022/08/16 14:18:08;;;;;;;3.70;2.97;;;;;;;;;;5068176;28;20474;-59
2022/08/16 14:20:42;;;;;;;3.03;2.42;;;;;;;;;;5051755;28;20037;-59
2022/08/16 14:23:12;;;;;;;3.67;3.20;;;;;;;;;;5052936;28;20025;-59
2022/08/16 14:25:39;;;;;;;3.25;2.72;;;;;;;;;;5051657;28;20036;-59
2022/08/16 14:28:05;;;;;;;3.47;2.72;;;;;;;;;;5051565;28;20063;-59
2022/08/16 14:30:34;;;;;;;2.65;2.15;;;;;;;;;;5051607;28;20028;-59
2022/08/16 14:33:03;;;;;;;4.90;3.10;;;;;;;;;;5050218;28;20364;-59
2022/08/16 14:35:38;;;;;;;4.85;2.50;;;;;;;;;;5050174;28;20037;-59
2022/08/16 14:38:04;;;;;;;5.85;2.17;;;;;;;;;;5044577;28;20051;-59
2022/08/16 14:40:31;;;;;;;4.30;2.80;;;;;;;;;;5051492;28;20062;-59
2022/08/16 14:42:57;;;;;;;5.15;3.95;;;;;;;;;;5052607;28;20025;-59
2022/08/16 14:45:27;;;;;;;3.42;2.72;;;;;;;;;;5050801;28;20404;-59
2022/08/16 14:47:53;;;;;;;3.38;2.78;;;;;;;;;;5051586;28;20029;-59
2022/08/16 14:50:21;;;;;;;3.05;2.55;;;;;;;;;;5050371;28;20120;-59
2022/08/16 14:52:58;;;;;;;5.25;3.40;;;;;;;;;;5051167;28;20136;-59
2022/08/16 14:55:26;;;;;;;3.33;2.67;;;;;;;;;;5066477;28;20060;-59
2022/08/16 14:57:54;;;;;;;7.38;3.15;;;;;;;;;;5032551;28;20040;-59
2022/08/16 15:00:20;;;;;;;4.22;3.00;;;;;;;;;;5013905;28;20416;-59
2022/08/16 15:02:53;;;;;;;3.65;2.55;;;;;;;;;;5032950;28;20037;-59
2022/08/16 15:05:21;;;;;;;6.65;3.60;;;;;;;;;;5049257;28;20028;-59
2022/08/16 15:07:48;;;;;;;4.03;3.38;;;;;;;;;;5051224;28;20021;-59
2022/08/16 15:10:14;;;;;;;3.47;2.65;;;;;;;;;;5049270;28;20090;-60
2022/08/16 15:12:41;;;;;;;5.10;2.78;;;;;;;;;;5050471;28;20341;-59
2022/08/16 15:15:09;;;;;;;6.68;3.03;;;;;;;;;;5050033;28;20149;-60
2022/08/16 15:17:38;;;;;;;3.75;3.00;;;;;;;;;;5066032;28;20064;-59
2022/08/16 15:20:06;;;;;;;4.75;3.22;;;;;;;;;;5049010;28;20059;-60
2022/08/16 15:22:36;;;;;;;5.25;3.03;;;;;;;;;;5051610;28;20029;-59
2022/08/16 15:25:09;;;;;;;6.55;3.03;;;;;;;;;;5050769;28;20016;-60
2022/08/16 15:27:40;;;;;;;7.07;3.50;;;;;;;;;;5051217;28;20029;-59
2022/08/16 15:30:10;;;;;;;5.60;2.90;;;;;;;;;;5032476;28;20029;-59
2022/08/16 15:32:36;;;;;;;4.70;2.73;;;;;;;;;;5047504;28;20386;-59
2022/08/16 15:35:02;;;;;;;5.07;3.25;;;;;;;;;;5049921;28;20021;-59
2022/08/16 15:37:30;;;;;;;4.03;2.72;;;;;;;;;;5066646;28;20043;-59
2022/08/16 15:39:56;;;;;;;4.25;3.08;;;;;;;;;;5050041;28;20489;-59
2022/08/16 15:42:25;;;;;;;3.88;3.45;;;;;;;;;;5050908;28;20394;-59
2022/08/16 15:44:52;;;;;;;3.92;3.15;;;;;;;;;;5050414;28;20025;-59
2022/08/16 15:47:20;;;;;;;4.70;3.78;;;;;;;;;;5051194;28;20032;-59
2022/08/16 15:49:47;;;;;;;4.43;3.53;;;;;;;;;;5049262;28;20025;-59
2022/08/16 15:52:35;;;;;;;7.50;3.15;;;;;;;;;;5050924;28;20040;-59
2022/08/16 15:55:07;;;;;;;4.50;3.72;;;;;;;;;;5049482;28;20021;-59
2022/08/16 15:57:34;;;;;;;5.22;3.33;;;;;;;;;;5049969;28;20390;-59
2022/08/16 16:00:04;;;;;;;5.20;2.90;;;;;;;;;;5064855;28;20391;-59
2022/08/16 16:02:31;;;;;;;4.25;3.50;;;;;;;;;;5049568;28;20091;-59
2022/08/16 16:04:59;;;;;;;4.63;2.92;;;;;;;;;;5050146;28;20040;-59
2022/08/16 16:07:26;;;;;;;4.82;3.30;;;;;;;;;;5051100;28;20035;-59
2022/08/16 16:09:52;;;;;;;4.45;3.13;;;;;;;;;;5050812;28;20115;-59
2022/08/16 16:12:18;;;;;;;3.42;2.80;;;;;;;;;;5065924;28;20391;-59
2022/08/16 16:14:44;;;;;;;4.78;3.28;;;;;;;;;;5050392;28;20078;-59
2022/08/16 16:17:12;;;;;;;3.15;2.85;;;;;;;;;;5050940;28;20167;-59
2022/08/16 16:19:41;;;;;;;4.05;3.20;;;;;;;;;;5049650;28;20033;-59
2022/08/16 16:22:08;;;;;;;5.07;3.53;;;;;;;;;;5049746;28;20458;-59
2022/08/16 16:24:37;;;;;;;3.25;2.85;;;;;;;;;;5049186;28;20087;-59
2022/08/16 16:27:03;;;;;;;4.30;3.03;;;;;;;;;;5047358;28;20017;-59
2022/08/16 16:29:29;;;;;;;3.55;3.13;;;;;;;;;;5053783;28;20056;-59
2022/08/16 16:31:55;;;;;;;5.75;3.35;;;;;;;;;;5069992;28;20052;-59
2022/08/16 16:34:24;;;;;;;3.83;3.17;;;;;;;;;;5052607;28;20032;-59
2022/08/16 16:36:50;;;;;;;4.10;3.22;;;;;;;;;;5054553;28;20371;-59
2022/08/16 16:39:16;;;;;;;4.20;2.78;;;;;;;;;;5069040;28;20108;-59
2022/08/16 16:41:42;;;;;;;3.30;3.00;;;;;;;;;;5036892;28;20415;-59
2022/08/16 16:44:17;;;;;;;3.90;3.05;;;;;;;;;;5052327;28;20105;-59